createdAt,value
2018-03-27T00:00:57.917Z,0.00
2018-03-27T00:01:57.915Z,0.00
2018-03-27T00:02:57.912Z,0.00
2018-03-27T00:03:57.922Z,0.00
2018-03-27T00:04:57.970Z,0.00
2018-03-27T00:05:57.899Z,0.00
2018-03-27T00:06:57.912Z,0.00
2018-03-27T00:07:57.910Z,0.00
2018-03-27T00:08:57.910Z,0.00
2018-03-27T00:09:57.906Z,0.00
2018-03-27T00:10:57.903Z,0.00
2018-03-27T00:11:57.906Z,0.00
2018-03-27T00:12:57.916Z,0.00
2018-03-27T00:13:58.457Z,0.00
2018-03-27T00:14:57.909Z,0.00
2018-03-27T00:15:57.910Z,0.00
2018-03-27T00:16:57.905Z,0.00
2018-03-27T00:17:57.982Z,0.00
2018-03-27T00:18:57.896Z,0.00
2018-03-27T00:19:57.905Z,0.00
2018-03-27T00:20:57.906Z,0.00
2018-03-27T00:21:57.905Z,0.00
2018-03-27T00:22:57.978Z,0.00
2018-03-27T00:23:57.917Z,0.00
2018-03-27T00:24:57.905Z,0.00
2018-03-27T00:25:57.902Z,0.00
2018-03-27T00:26:57.903Z,0.00
2018-03-27T00:27:57.916Z,0.00
2018-03-27T00:28:57.903Z,0.00
2018-03-27T00:29:57.899Z,0.00
2018-03-27T00:30:57.902Z,0.00
2018-03-27T00:31:57.913Z,0.00
2018-03-27T00:32:57.904Z,0.00
2018-03-27T00:33:57.901Z,0.00
2018-03-27T00:34:57.906Z,0.00
2018-03-27T00:35:57.922Z,0.00
2018-03-27T00:36:57.889Z,0.00
2018-03-27T00:37:57.901Z,0.00
2018-03-27T00:38:57.894Z,0.00
2018-03-27T00:39:57.900Z,0.00
2018-03-27T00:40:57.903Z,0.00
2018-03-27T00:41:57.895Z,0.00
2018-03-27T00:42:57.902Z,0.00
2018-03-27T00:43:57.897Z,0.00
2018-03-27T00:44:57.898Z,0.00
2018-03-27T00:45:57.902Z,0.00
2018-03-27T00:46:57.899Z,0.00
2018-03-27T00:47:57.895Z,0.00
2018-03-27T00:48:58.467Z,0.00
2018-03-27T00:49:57.901Z,0.00
2018-03-27T00:50:57.904Z,0.00
2018-03-27T00:51:57.898Z,0.00
2018-03-27T00:52:57.895Z,0.00
2018-03-27T00:53:57.890Z,0.00
2018-03-27T00:54:57.901Z,0.00
2018-03-27T00:55:57.894Z,0.00
2018-03-27T00:56:57.890Z,0.00
2018-03-27T00:57:57.895Z,0.00
2018-03-27T00:58:57.902Z,0.00
2018-03-27T00:59:57.890Z,0.00
2018-03-27T01:00:57.894Z,0.00
2018-03-27T01:01:57.901Z,0.00
2018-03-27T01:02:57.894Z,0.00
2018-03-27T01:03:57.893Z,0.00
2018-03-27T01:04:57.898Z,0.00
2018-03-27T01:05:57.899Z,0.00
2018-03-27T01:06:57.895Z,0.00
2018-03-27T01:07:57.888Z,0.00
2018-03-27T01:08:57.909Z,0.00
2018-03-27T01:09:57.881Z,0.00
2018-03-27T01:10:57.888Z,0.00
2018-03-27T01:11:57.885Z,0.00
2018-03-27T01:12:57.890Z,0.00
2018-03-27T01:13:57.881Z,0.00
2018-03-27T01:14:57.898Z,0.00
2018-03-27T01:15:57.893Z,0.00
2018-03-27T01:16:57.887Z,0.00
2018-03-27T01:17:57.892Z,0.00
2018-03-27T01:18:57.892Z,0.00
2018-03-27T01:19:57.955Z,0.00
2018-03-27T01:20:57.898Z,0.00
2018-03-27T01:21:57.890Z,0.00
2018-03-27T01:22:57.894Z,0.00
2018-03-27T01:23:57.892Z,0.00
2018-03-27T01:24:57.895Z,0.00
2018-03-27T01:25:57.887Z,0.00
2018-03-27T01:26:57.884Z,0.00
2018-03-27T01:27:57.888Z,0.00
2018-03-27T01:28:57.891Z,0.00
2018-03-27T01:29:57.887Z,0.00
2018-03-27T01:30:57.887Z,0.00
2018-03-27T01:31:57.883Z,0.00
2018-03-27T01:32:57.898Z,0.00
2018-03-27T01:33:57.889Z,0.00
2018-03-27T01:34:57.880Z,0.00
2018-03-27T01:35:57.887Z,0.00
2018-03-27T01:36:57.885Z,0.00
2018-03-27T01:37:57.944Z,0.00
2018-03-27T01:38:57.887Z,0.00
2018-03-27T01:39:57.889Z,0.00
2018-03-27T01:40:57.885Z,0.00
2018-03-27T01:41:57.901Z,0.00
2018-03-27T01:42:57.883Z,0.00
2018-03-27T01:43:57.894Z,0.00
2018-03-27T01:44:57.899Z,0.00
2018-03-27T01:45:57.886Z,0.00
2018-03-27T01:46:57.887Z,0.00
2018-03-27T01:47:57.889Z,0.00
2018-03-27T01:48:57.886Z,0.00
2018-03-27T01:49:57.885Z,0.00
2018-03-27T01:50:57.886Z,0.00
2018-03-27T01:51:57.886Z,0.00
2018-03-27T01:52:57.891Z,0.00
2018-03-27T01:53:57.886Z,0.00
2018-03-27T01:54:57.886Z,0.00
2018-03-27T01:55:57.883Z,0.00
2018-03-27T01:56:57.884Z,0.00
2018-03-27T01:57:57.895Z,0.00
2018-03-27T01:58:57.931Z,0.00
2018-03-27T01:59:57.888Z,0.00
2018-03-27T02:00:57.881Z,0.00
2018-03-27T02:01:57.886Z,0.00
2018-03-27T02:02:57.885Z,0.00
2018-03-27T02:03:57.906Z,0.00
2018-03-27T02:04:57.887Z,0.00
2018-03-27T02:05:57.880Z,0.00
2018-03-27T02:06:57.890Z,0.00
2018-03-27T02:07:57.886Z,0.00
2018-03-27T02:08:57.874Z,0.00
2018-03-27T02:09:57.875Z,0.00
2018-03-27T02:10:57.879Z,0.00
2018-03-27T02:11:57.882Z,0.00
2018-03-27T02:12:57.888Z,0.00
2018-03-27T02:13:57.884Z,0.00
2018-03-27T02:14:57.889Z,0.00
2018-03-27T02:15:57.904Z,0.00
2018-03-27T02:16:57.901Z,0.00
2018-03-27T02:17:57.881Z,0.00
2018-03-27T02:18:57.881Z,0.00
2018-03-27T02:19:57.888Z,0.00
2018-03-27T02:20:57.881Z,0.00
2018-03-27T02:21:57.886Z,0.00
2018-03-27T02:22:57.869Z,0.00
2018-03-27T02:23:57.881Z,0.00
2018-03-27T02:24:57.885Z,0.00
2018-03-27T02:25:57.879Z,0.00
2018-03-27T02:26:57.884Z,0.00
2018-03-27T02:27:57.885Z,0.00
2018-03-27T02:28:57.880Z,0.00
2018-03-27T02:29:57.973Z,0.00
2018-03-27T02:30:57.885Z,0.00
2018-03-27T02:31:57.883Z,0.00
2018-03-27T02:32:57.949Z,0.00
2018-03-27T02:33:57.880Z,0.00
2018-03-27T02:34:57.881Z,0.00
2018-03-27T02:35:57.880Z,0.00
2018-03-27T02:36:57.876Z,0.00
2018-03-27T02:37:57.876Z,0.00
2018-03-27T02:38:57.881Z,0.00
2018-03-27T02:39:57.878Z,0.00
2018-03-27T02:40:57.883Z,0.00
2018-03-27T02:41:57.884Z,0.00
2018-03-27T02:42:57.884Z,0.00
2018-03-27T02:43:57.881Z,0.00
2018-03-27T02:44:57.881Z,0.00
2018-03-27T02:45:57.871Z,0.00
2018-03-27T02:46:57.891Z,0.00
2018-03-27T02:47:57.881Z,0.00
2018-03-27T02:48:57.876Z,0.00
2018-03-27T02:49:57.879Z,0.00
2018-03-27T02:50:57.882Z,0.00
2018-03-27T02:51:57.889Z,0.00
2018-03-27T02:52:58.495Z,0.00
2018-03-27T02:53:57.880Z,0.00
2018-03-27T02:54:57.902Z,0.00
2018-03-27T02:55:57.883Z,0.00
2018-03-27T02:56:57.880Z,0.00
2018-03-27T02:57:57.886Z,0.00
2018-03-27T02:58:57.868Z,0.00
2018-03-27T02:59:57.877Z,0.00
2018-03-27T03:00:57.979Z,0.00
2018-03-27T03:01:57.885Z,0.00
2018-03-27T03:02:57.879Z,0.00
2018-03-27T03:03:57.878Z,0.00
2018-03-27T03:04:57.877Z,0.00
2018-03-27T03:05:57.895Z,0.00
2018-03-27T03:06:57.879Z,0.00
2018-03-27T03:07:57.880Z,0.00
2018-03-27T03:08:57.884Z,0.00
2018-03-27T03:09:57.868Z,0.00
2018-03-27T03:10:57.871Z,0.00
2018-03-27T03:11:57.870Z,0.00
2018-03-27T03:12:57.882Z,0.00
2018-03-27T03:13:57.877Z,0.00
2018-03-27T03:14:57.874Z,0.00
2018-03-27T03:15:57.876Z,0.00
2018-03-27T03:16:57.873Z,0.00
2018-03-27T03:17:57.872Z,0.00
2018-03-27T03:18:57.862Z,0.00
2018-03-27T03:19:57.874Z,0.00
2018-03-27T03:20:57.879Z,0.00
2018-03-27T03:21:57.860Z,0.00
2018-03-27T03:22:57.894Z,0.00
2018-03-27T03:23:57.872Z,0.00
2018-03-27T03:24:57.873Z,0.00
2018-03-27T03:25:57.872Z,0.00
2018-03-27T03:26:57.948Z,0.00
2018-03-27T03:27:57.873Z,0.00
2018-03-27T03:28:57.873Z,0.00
2018-03-27T03:29:57.876Z,0.00
2018-03-27T03:30:57.872Z,0.00
2018-03-27T03:31:57.879Z,0.00
2018-03-27T03:32:57.868Z,0.00
2018-03-27T03:33:57.888Z,0.00
2018-03-27T03:34:57.871Z,0.00
2018-03-27T03:35:57.970Z,0.00
2018-03-27T03:36:57.871Z,0.00
2018-03-27T03:37:57.867Z,0.00
2018-03-27T03:38:57.873Z,0.00
2018-03-27T03:39:57.877Z,0.00
2018-03-27T03:40:57.868Z,0.00
2018-03-27T03:41:57.860Z,0.00
2018-03-27T03:42:57.864Z,0.00
2018-03-27T03:43:57.870Z,0.00
2018-03-27T03:44:57.866Z,0.00
2018-03-27T03:45:57.866Z,0.00
2018-03-27T03:46:57.873Z,0.00
2018-03-27T03:47:57.863Z,0.00
2018-03-27T03:48:57.867Z,0.00
2018-03-27T03:49:57.880Z,0.00
2018-03-27T03:50:57.865Z,0.00
2018-03-27T03:51:57.858Z,0.00
2018-03-27T03:52:57.864Z,0.00
2018-03-27T03:53:57.866Z,0.00
2018-03-27T03:54:57.868Z,0.00
2018-03-27T03:55:57.860Z,0.00
2018-03-27T03:56:57.873Z,0.00
2018-03-27T03:57:57.869Z,0.00
2018-03-27T03:58:57.865Z,0.00
2018-03-27T03:59:57.870Z,0.00
2018-03-27T04:00:57.857Z,0.00
2018-03-27T04:01:57.864Z,0.00
2018-03-27T04:02:57.855Z,0.00
2018-03-27T04:03:57.861Z,0.00
2018-03-27T04:04:57.860Z,0.00
2018-03-27T04:05:57.854Z,0.00
2018-03-27T04:06:57.861Z,0.00
2018-03-27T04:07:57.865Z,0.00
2018-03-27T04:08:57.859Z,0.00
2018-03-27T04:09:57.858Z,0.00
2018-03-27T04:10:57.955Z,0.00
2018-03-27T04:11:57.855Z,0.00
2018-03-27T04:12:57.851Z,0.00
2018-03-27T04:13:57.845Z,0.00
2018-03-27T04:14:57.852Z,0.00
2018-03-27T04:15:57.858Z,0.00
2018-03-27T04:16:57.855Z,0.00
2018-03-27T04:17:57.850Z,0.00
2018-03-27T04:18:57.851Z,0.00
2018-03-27T04:19:57.855Z,0.00
2018-03-27T04:20:57.840Z,0.00
2018-03-27T04:21:57.846Z,0.00
2018-03-27T04:22:57.841Z,0.00
2018-03-27T04:23:57.853Z,0.00
2018-03-27T04:24:57.842Z,0.00
2018-03-27T04:25:57.838Z,0.00
2018-03-27T04:26:57.860Z,0.00
2018-03-27T04:27:57.846Z,0.00
2018-03-27T04:28:57.844Z,0.00
2018-03-27T04:29:57.843Z,0.00
2018-03-27T04:30:57.836Z,0.00
2018-03-27T04:31:57.843Z,0.00
2018-03-27T04:32:57.839Z,0.00
2018-03-27T04:33:57.846Z,0.00
2018-03-27T04:34:57.838Z,0.00
2018-03-27T04:35:57.830Z,0.00
2018-03-27T04:36:57.824Z,0.00
2018-03-27T04:37:57.825Z,0.00
2018-03-27T04:38:57.830Z,0.00
2018-03-27T04:39:57.831Z,0.00
2018-03-27T04:40:57.828Z,0.00
2018-03-27T04:41:57.936Z,0.00
2018-03-27T04:42:57.822Z,0.00
2018-03-27T04:43:57.831Z,0.00
2018-03-27T04:44:57.827Z,0.00
2018-03-27T04:45:57.817Z,0.00
2018-03-27T04:46:57.824Z,0.00
2018-03-27T04:47:57.826Z,4.00
2018-03-27T04:48:57.823Z,4.00
2018-03-27T04:49:57.827Z,0.00
2018-03-27T04:50:57.825Z,4.00
2018-03-27T04:51:57.821Z,4.00
2018-03-27T04:52:57.817Z,4.00
2018-03-27T04:53:57.815Z,4.00
2018-03-27T04:54:57.950Z,8.00
2018-03-27T04:55:57.816Z,8.00
2018-03-27T04:56:57.820Z,8.00
2018-03-27T04:57:57.819Z,12.00
2018-03-27T04:58:57.819Z,12.00
2018-03-27T04:59:57.822Z,12.00
2018-03-27T05:00:57.830Z,16.00
2018-03-27T05:01:57.815Z,20.00
2018-03-27T05:02:57.809Z,20.00
2018-03-27T05:03:57.811Z,28.00
2018-03-27T05:04:57.827Z,28.00
2018-03-27T05:05:57.806Z,32.00
2018-03-27T05:06:57.820Z,36.00
2018-03-27T05:07:58.522Z,44.00
2018-03-27T05:08:57.805Z,48.00
2018-03-27T05:09:57.802Z,52.00
2018-03-27T05:10:57.815Z,64.00
2018-03-27T05:11:57.803Z,68.00
2018-03-27T05:12:57.801Z,80.00
2018-03-27T05:13:57.790Z,88.00
2018-03-27T05:14:57.798Z,96.00
2018-03-27T05:15:57.805Z,104.00
2018-03-27T05:16:57.806Z,120.00
2018-03-27T05:17:57.802Z,128.00
2018-03-27T05:18:58.516Z,140.00
2018-03-27T05:19:57.783Z,152.00
2018-03-27T05:20:58.514Z,164.00
2018-03-27T05:21:57.788Z,176.00
2018-03-27T05:22:57.793Z,188.00
2018-03-27T05:23:57.796Z,204.00
2018-03-27T05:24:57.792Z,220.00
2018-03-27T05:25:57.782Z,236.00
2018-03-27T05:26:57.790Z,256.00
2018-03-27T05:27:57.789Z,280.00
2018-03-27T05:28:57.839Z,300.00
2018-03-27T05:29:57.783Z,324.00
2018-03-27T05:30:57.790Z,352.00
2018-03-27T05:31:57.788Z,380.00
2018-03-27T05:32:57.783Z,408.00
2018-03-27T05:33:57.784Z,436.00
2018-03-27T05:34:57.785Z,460.00
2018-03-27T05:35:57.784Z,484.00
2018-03-27T05:36:57.789Z,516.00
2018-03-27T05:37:57.783Z,548.00
2018-03-27T05:38:57.783Z,576.00
2018-03-27T05:39:57.788Z,612.00
2018-03-27T05:40:57.777Z,648.00
2018-03-27T05:41:57.827Z,684.00
2018-03-27T05:42:57.797Z,724.00
2018-03-27T05:43:57.776Z,756.00
2018-03-27T05:44:57.775Z,780.00
2018-03-27T05:45:57.767Z,800.00
2018-03-27T05:46:57.771Z,824.00
2018-03-27T05:47:57.792Z,860.00
2018-03-27T05:48:57.779Z,904.00
2018-03-27T05:49:57.770Z,948.00
2018-03-27T05:50:57.775Z,992.00
2018-03-27T05:51:57.771Z,1032.00
2018-03-27T05:52:57.753Z,1068.00
2018-03-27T05:53:57.765Z,1104.00
2018-03-27T05:54:57.770Z,1144.00
2018-03-27T05:55:57.828Z,1192.00
2018-03-27T05:56:57.758Z,1244.00
2018-03-27T05:57:57.760Z,1308.00
2018-03-27T05:58:57.770Z,1376.00
2018-03-27T05:59:57.760Z,1452.00
2018-03-27T06:00:57.807Z,1516.00
2018-03-27T06:01:57.750Z,1580.00
2018-03-27T06:02:57.754Z,1652.00
2018-03-27T06:03:57.749Z,1720.00
2018-03-27T06:04:57.756Z,1784.00
2018-03-27T06:05:57.752Z,1844.00
2018-03-27T06:06:57.738Z,1912.00
2018-03-27T06:07:57.751Z,1992.00
2018-03-27T06:08:57.748Z,2068.00
2018-03-27T06:09:57.741Z,2144.00
2018-03-27T06:10:57.763Z,2228.00
2018-03-27T06:11:57.746Z,2328.00
2018-03-27T06:12:57.734Z,2448.00
2018-03-27T06:13:57.749Z,2532.00
2018-03-27T06:14:57.753Z,2596.00
2018-03-27T06:15:57.752Z,2652.00
2018-03-27T06:16:57.745Z,2704.00
2018-03-27T06:17:57.736Z,2752.00
2018-03-27T06:18:57.736Z,2840.00
2018-03-27T06:19:57.745Z,2920.00
2018-03-27T06:20:57.759Z,3004.00
2018-03-27T06:21:57.738Z,3088.00
2018-03-27T06:22:58.524Z,3180.00
2018-03-27T06:23:57.722Z,3240.00
2018-03-27T06:24:57.743Z,3300.00
2018-03-27T06:25:57.776Z,3368.00
2018-03-27T06:26:57.743Z,3448.00
2018-03-27T06:27:57.753Z,3532.00
2018-03-27T06:28:57.723Z,3632.00
2018-03-27T06:29:57.734Z,3688.00
2018-03-27T06:30:58.080Z,3712.00
2018-03-27T06:31:57.735Z,3768.00
2018-03-27T06:32:57.808Z,3880.00
2018-03-27T06:33:57.734Z,4008.00
2018-03-27T06:34:57.724Z,4160.00
2018-03-27T06:35:57.724Z,4364.00
2018-03-27T06:36:57.727Z,4516.00
2018-03-27T06:37:57.758Z,4596.00
2018-03-27T06:38:57.728Z,4636.00
2018-03-27T06:39:57.731Z,4616.00
2018-03-27T06:40:57.725Z,4832.00
2018-03-27T06:41:57.732Z,4960.00
2018-03-27T06:42:57.718Z,4992.00
2018-03-27T06:43:57.721Z,5176.00
2018-03-27T06:44:57.719Z,5172.00
2018-03-27T06:45:57.828Z,5304.00
2018-03-27T06:46:57.744Z,5176.00
2018-03-27T06:47:57.717Z,5572.00
2018-03-27T06:48:57.742Z,5864.00
2018-03-27T06:49:57.723Z,6112.00
2018-03-27T06:50:57.730Z,6312.00
2018-03-27T06:51:57.816Z,6324.00
2018-03-27T06:52:57.727Z,6268.00
2018-03-27T06:53:57.732Z,6300.00
2018-03-27T06:54:57.736Z,6344.00
2018-03-27T06:55:57.730Z,6328.00
2018-03-27T06:56:57.727Z,6264.00
2018-03-27T06:57:57.737Z,6288.00
2018-03-27T06:58:57.799Z,6640.00
2018-03-27T06:59:57.735Z,6804.00
2018-03-27T07:00:57.735Z,6672.00
2018-03-27T07:01:57.772Z,6892.00
2018-03-27T07:02:57.744Z,7244.00
2018-03-27T07:03:57.757Z,7404.00
2018-03-27T07:04:57.776Z,7212.00
2018-03-27T07:05:57.790Z,7360.00
2018-03-27T07:06:57.737Z,7540.00
2018-03-27T07:07:57.787Z,7416.00
2018-03-27T07:08:57.734Z,7488.00
2018-03-27T07:09:58.536Z,7708.00
2018-03-27T07:10:57.754Z,8328.00
2018-03-27T07:11:57.747Z,8416.00
2018-03-27T07:12:57.756Z,8748.00
2018-03-27T07:13:57.812Z,8540.00
2018-03-27T07:14:57.772Z,8276.00
2018-03-27T07:15:57.759Z,8464.00
2018-03-27T07:16:57.762Z,8820.00
2018-03-27T07:17:57.759Z,8348.00
2018-03-27T07:18:57.766Z,8380.00
2018-03-27T07:19:57.790Z,8824.00
2018-03-27T07:20:57.768Z,9364.00
2018-03-27T07:21:57.759Z,10184.00
2018-03-27T07:22:57.764Z,9612.00
2018-03-27T07:23:57.776Z,9948.00
2018-03-27T07:24:57.766Z,9764.00
2018-03-27T07:25:58.543Z,9696.00
2018-03-27T07:26:57.823Z,9472.00
2018-03-27T07:27:57.781Z,9836.00
2018-03-27T07:28:57.791Z,9900.00
2018-03-27T07:29:57.785Z,10292.00
2018-03-27T07:30:57.796Z,10764.00
2018-03-27T07:31:57.787Z,10676.00
2018-03-27T07:32:57.807Z,10800.00
2018-03-27T07:33:57.792Z,10844.00
2018-03-27T07:34:57.800Z,9964.00
2018-03-27T07:35:58.549Z,10464.00
2018-03-27T07:36:57.808Z,10596.00
2018-03-27T07:37:57.834Z,10588.00
2018-03-27T07:38:58.546Z,10208.00
2018-03-27T07:39:57.822Z,9480.00
2018-03-27T07:40:57.818Z,9868.00
2018-03-27T07:41:57.829Z,10044.00
2018-03-27T07:42:57.833Z,9412.00
2018-03-27T07:43:57.824Z,9684.00
2018-03-27T07:44:57.829Z,12204.00
2018-03-27T07:45:57.830Z,12084.00
2018-03-27T07:46:57.929Z,13520.00
2018-03-27T07:47:57.840Z,15232.00
2018-03-27T07:48:57.838Z,14052.00
2018-03-27T07:49:57.857Z,14036.00
2018-03-27T07:50:57.863Z,13308.00
2018-03-27T07:51:57.843Z,12352.00
2018-03-27T07:52:57.893Z,11460.00
2018-03-27T07:53:57.844Z,11100.00
2018-03-27T07:54:57.886Z,11060.00
2018-03-27T07:55:57.853Z,12068.00
2018-03-27T07:56:57.861Z,14356.00
2018-03-27T07:57:57.873Z,14052.00
2018-03-27T07:58:57.883Z,14216.00
2018-03-27T07:59:57.980Z,13952.00
2018-03-27T08:00:57.878Z,12976.00
2018-03-27T08:01:57.890Z,13184.00
2018-03-27T08:02:57.896Z,15220.00
2018-03-27T08:03:57.881Z,18048.00
2018-03-27T08:04:57.881Z,15236.00
2018-03-27T08:05:57.876Z,16480.00
2018-03-27T08:06:57.900Z,18432.00
2018-03-27T08:07:57.889Z,20480.00
2018-03-27T08:08:57.933Z,23200.00
2018-03-27T08:09:57.903Z,24288.00
2018-03-27T08:10:57.957Z,17184.00
2018-03-27T08:11:57.905Z,18464.00
2018-03-27T08:12:58.563Z,22912.00
2018-03-27T08:13:57.917Z,16320.00
2018-03-27T08:14:57.916Z,16448.00
2018-03-27T08:15:57.930Z,14412.00
2018-03-27T08:16:57.920Z,10416.00
2018-03-27T08:17:57.918Z,9780.00
2018-03-27T08:18:57.928Z,10304.00
2018-03-27T08:19:57.927Z,8584.00
2018-03-27T08:20:57.985Z,7712.00
2018-03-27T08:21:57.939Z,7268.00
2018-03-27T08:22:57.947Z,7312.00
2018-03-27T08:23:57.959Z,7448.00
2018-03-27T08:24:57.938Z,7724.00
2018-03-27T08:25:57.944Z,7608.00
2018-03-27T08:26:57.946Z,7716.00
2018-03-27T08:27:57.952Z,7792.00
2018-03-27T08:28:57.964Z,7796.00
2018-03-27T08:29:57.949Z,8080.00
2018-03-27T08:30:58.564Z,8284.00
2018-03-27T08:31:57.964Z,8684.00
2018-03-27T08:32:57.966Z,9440.00
2018-03-27T08:33:57.970Z,9580.00
2018-03-27T08:34:57.968Z,9348.00
2018-03-27T08:35:57.971Z,9312.00
2018-03-27T08:36:57.979Z,9488.00
2018-03-27T08:37:57.971Z,9700.00
2018-03-27T08:38:57.983Z,9760.00
2018-03-27T08:39:57.995Z,9948.00
2018-03-27T08:40:57.993Z,9708.00
2018-03-27T08:41:57.993Z,9836.00
2018-03-27T08:42:57.988Z,10200.00
2018-03-27T08:43:58.040Z,11048.00
2018-03-27T08:44:58.011Z,11908.00
2018-03-27T08:45:57.992Z,12744.00
2018-03-27T08:46:57.985Z,13228.00
2018-03-27T08:47:57.995Z,13956.00
2018-03-27T08:48:58.007Z,14800.00
2018-03-27T08:49:58.004Z,15752.00
2018-03-27T08:50:58.018Z,17888.00
2018-03-27T08:51:58.010Z,20928.00
2018-03-27T08:52:58.007Z,27840.00
2018-03-27T08:53:58.572Z,27712.00
2018-03-27T08:54:58.007Z,27136.00
2018-03-27T08:55:58.026Z,28256.00
2018-03-27T08:56:58.027Z,37376.00
2018-03-27T08:57:58.026Z,26880.00
2018-03-27T08:58:58.027Z,26784.00
2018-03-27T08:59:58.034Z,39520.00
2018-03-27T09:00:58.029Z,35712.00
2018-03-27T09:01:58.034Z,32224.00
2018-03-27T09:02:58.036Z,26464.00
2018-03-27T09:03:58.042Z,29216.00
2018-03-27T09:04:58.038Z,30688.00
2018-03-27T09:05:58.043Z,29888.00
2018-03-27T09:06:58.283Z,23072.00
2018-03-27T09:07:58.047Z,23552.00
2018-03-27T09:08:58.095Z,23424.00
2018-03-27T09:09:58.078Z,22560.00
2018-03-27T09:10:58.106Z,26240.00
2018-03-27T09:11:58.133Z,35264.00
2018-03-27T09:12:58.147Z,34976.00
2018-03-27T09:13:58.147Z,52000.00
2018-03-27T09:14:58.116Z,32640.00
2018-03-27T09:15:58.081Z,48480.00
2018-03-27T09:16:58.092Z,56224.00
2018-03-27T09:17:58.095Z,48736.00
2018-03-27T09:18:58.093Z,53024.00
2018-03-27T09:19:58.221Z,50496.00
2018-03-27T09:20:58.101Z,44512.00
2018-03-27T09:21:58.107Z,39936.00
2018-03-27T09:22:58.115Z,42304.00
2018-03-27T09:23:58.116Z,40288.00
2018-03-27T09:24:58.110Z,34656.00
2018-03-27T09:25:58.289Z,42208.00
2018-03-27T09:26:58.158Z,21440.00
2018-03-27T09:27:58.175Z,30624.00
2018-03-27T09:28:58.154Z,31904.00
2018-03-27T09:29:58.148Z,33888.00
2018-03-27T09:30:58.163Z,37152.00
2018-03-27T09:31:58.181Z,34560.00
2018-03-27T09:32:58.164Z,37728.00
2018-03-27T09:33:58.185Z,19168.00
2018-03-27T09:34:58.185Z,37088.00
2018-03-27T09:35:58.218Z,37792.00
2018-03-27T09:36:58.198Z,37152.00
2018-03-27T09:37:58.267Z,35264.00
2018-03-27T09:38:58.221Z,35072.00
2018-03-27T09:39:58.222Z,36608.00
2018-03-27T09:40:58.240Z,39008.00
2018-03-27T09:41:58.234Z,36512.00
2018-03-27T09:42:58.241Z,37152.00
2018-03-27T09:43:58.312Z,39712.00
2018-03-27T09:44:58.256Z,39968.00
2018-03-27T09:45:58.284Z,37728.00
2018-03-27T09:46:58.277Z,36448.00
2018-03-27T09:47:58.407Z,37056.00
2018-03-27T09:48:58.287Z,37984.00
2018-03-27T09:49:58.295Z,37536.00
2018-03-27T09:50:58.332Z,38816.00
2018-03-27T09:51:58.316Z,42944.00
2018-03-27T09:52:58.339Z,43136.00
2018-03-27T09:53:58.324Z,41408.00
2018-03-27T09:54:58.344Z,41888.00
2018-03-27T09:55:58.347Z,44512.00
2018-03-27T09:56:58.354Z,34080.00
2018-03-27T09:57:58.397Z,43104.00
2018-03-27T09:58:58.680Z,47872.00
2018-03-27T09:59:58.391Z,48096.00
2018-03-27T10:00:58.411Z,48128.00
2018-03-27T10:01:58.396Z,47520.00
2018-03-27T10:02:58.412Z,51200.00
2018-03-27T10:03:58.433Z,52000.00
2018-03-27T10:04:58.420Z,51488.00
2018-03-27T10:05:58.481Z,47488.00
2018-03-27T10:06:58.452Z,43232.00
2018-03-27T10:07:59.122Z,41728.00
2018-03-27T10:08:58.477Z,45376.00
2018-03-27T10:09:58.493Z,46240.00
2018-03-27T10:10:58.542Z,46496.00
2018-03-27T10:11:58.525Z,45984.00
2018-03-27T10:12:58.514Z,45984.00
2018-03-27T10:13:58.516Z,40864.00
2018-03-27T10:14:58.534Z,25472.00
2018-03-27T10:15:58.613Z,34848.00
2018-03-27T10:16:58.555Z,38592.00
2018-03-27T10:17:58.574Z,41856.00
2018-03-27T10:18:58.578Z,41568.00
2018-03-27T10:19:58.579Z,41216.00
2018-03-27T10:20:58.593Z,40352.00
2018-03-27T10:21:58.600Z,40128.00
2018-03-27T10:22:58.615Z,38112.00
2018-03-27T10:23:58.629Z,32832.00
2018-03-27T10:24:58.658Z,38016.00
2018-03-27T10:25:59.623Z,39744.00
2018-03-27T10:26:58.665Z,47168.00
2018-03-27T10:27:58.676Z,46560.00
2018-03-27T10:28:58.711Z,44640.00
2018-03-27T10:29:58.696Z,56128.00
2018-03-27T10:30:58.707Z,67552.00
2018-03-27T10:31:58.720Z,68096.00
2018-03-27T10:32:58.743Z,67808.00
2018-03-27T10:33:58.730Z,68896.00
2018-03-27T10:34:58.761Z,70976.00
2018-03-27T10:35:58.788Z,62656.00
2018-03-27T10:36:58.766Z,68608.00
2018-03-27T10:37:58.789Z,47456.00
2018-03-27T10:38:58.796Z,22304.00
2018-03-27T10:39:58.826Z,51104.00
2018-03-27T10:40:58.823Z,58944.00
2018-03-27T10:41:58.836Z,63136.00
2018-03-27T10:42:58.849Z,68672.00
2018-03-27T10:43:58.866Z,66720.00
2018-03-27T10:44:58.864Z,37824.00
2018-03-27T10:45:58.887Z,21984.00
2018-03-27T10:46:58.894Z,52608.00
2018-03-27T10:47:58.898Z,35392.00
2018-03-27T10:48:58.934Z,36736.00
2018-03-27T10:50:24.640Z,17248.00
2018-03-27T10:50:58.934Z,38816.00
2018-03-27T10:51:58.956Z,16612.00
2018-03-27T10:52:58.956Z,9804.00
2018-03-27T10:53:58.961Z,8100.00
2018-03-27T10:54:58.978Z,8992.00
2018-03-27T10:55:58.982Z,12680.00
2018-03-27T10:56:58.990Z,14252.00
2018-03-27T10:57:59.009Z,12424.00
2018-03-27T10:58:59.010Z,11236.00
2018-03-27T10:59:59.091Z,8440.00
2018-03-27T11:00:59.640Z,17248.00
2018-03-27T11:01:59.042Z,13004.00
2018-03-27T11:02:59.060Z,13672.00
2018-03-27T11:03:59.095Z,12348.00
2018-03-27T11:04:59.081Z,11428.00
2018-03-27T11:05:59.056Z,9196.00
2018-03-27T11:06:59.071Z,11244.00
2018-03-27T11:07:59.078Z,9196.00
2018-03-27T11:08:59.087Z,8516.00
2018-03-27T11:09:59.105Z,9856.00
2018-03-27T11:10:59.107Z,12768.00
2018-03-27T11:11:59.098Z,15064.00
2018-03-27T11:12:59.112Z,35456.00
2018-03-27T11:13:59.192Z,25984.00
2018-03-27T11:14:59.122Z,16104.00
2018-03-27T11:15:59.126Z,14820.00
2018-03-27T11:16:59.122Z,15392.00
2018-03-27T11:17:59.135Z,17056.00
2018-03-27T11:18:59.154Z,21216.00
2018-03-27T11:19:59.147Z,17600.00
2018-03-27T11:20:59.150Z,13212.00
2018-03-27T11:21:59.154Z,12196.00
2018-03-27T11:22:59.160Z,13296.00
2018-03-27T11:23:59.653Z,13164.00
2018-03-27T11:24:59.161Z,22976.00
2018-03-27T11:25:59.169Z,28704.00
2018-03-27T11:26:59.187Z,13048.00
2018-03-27T11:27:59.175Z,16192.00
2018-03-27T11:28:59.185Z,16384.00
2018-03-27T11:29:59.218Z,15092.00
2018-03-27T11:30:59.198Z,14100.00
2018-03-27T11:31:59.206Z,11872.00
2018-03-27T11:32:59.210Z,11500.00
2018-03-27T11:33:59.204Z,12536.00
2018-03-27T11:34:59.206Z,13088.00
2018-03-27T11:35:59.207Z,13820.00
2018-03-27T11:36:59.210Z,13964.00
2018-03-27T11:37:59.272Z,13820.00
2018-03-27T11:38:59.244Z,13324.00
2018-03-27T11:39:59.257Z,11512.00
2018-03-27T11:40:59.232Z,11288.00
2018-03-27T11:42:00.163Z,11700.00
2018-03-27T11:42:59.245Z,11860.00
2018-03-27T11:43:59.246Z,12304.00
2018-03-27T11:45:00.165Z,12300.00
2018-03-27T11:45:59.269Z,12448.00
2018-03-27T11:46:59.324Z,13040.00
2018-03-27T11:47:59.277Z,13288.00
2018-03-27T11:48:59.374Z,13232.00
2018-03-27T11:49:59.339Z,13100.00
2018-03-27T11:50:59.325Z,12816.00
2018-03-27T11:51:59.347Z,12532.00
2018-03-27T11:52:59.509Z,12292.00
2018-03-27T11:53:59.316Z,12032.00
2018-03-27T11:54:59.307Z,11696.00
2018-03-27T11:55:59.320Z,11292.00
2018-03-27T11:57:59.310Z,10968.00
2018-03-27T11:58:59.311Z,11308.00
2018-03-27T11:59:59.503Z,11508.00
2018-03-27T12:00:59.321Z,11632.00
2018-03-27T12:01:59.330Z,11504.00
2018-03-27T12:02:59.338Z,11616.00
2018-03-27T12:03:59.344Z,11788.00
2018-03-27T12:04:59.345Z,11680.00
2018-03-27T12:05:59.353Z,11464.00
2018-03-27T12:06:59.358Z,11200.00
2018-03-27T12:07:59.357Z,10900.00
2018-03-27T12:08:59.357Z,10632.00
2018-03-27T12:09:59.357Z,10532.00
2018-03-27T12:10:59.368Z,10560.00
2018-03-27T12:11:59.357Z,10256.00
2018-03-27T12:12:59.373Z,9724.00
2018-03-27T12:13:59.371Z,9544.00
2018-03-27T12:14:59.378Z,9144.00
2018-03-27T12:15:59.380Z,9096.00
2018-03-27T12:16:59.398Z,9592.00
2018-03-27T12:17:59.443Z,9328.00
2018-03-27T12:18:59.403Z,8416.00
2018-03-27T12:19:59.390Z,8024.00
2018-03-27T12:20:59.395Z,8188.00
2018-03-27T12:21:59.394Z,8056.00
2018-03-27T12:22:59.448Z,7664.00
2018-03-27T12:23:59.403Z,7148.00
2018-03-27T12:24:59.855Z,6580.00
2018-03-27T12:25:59.412Z,6404.00
2018-03-27T12:26:59.421Z,6704.00
2018-03-27T12:27:59.425Z,6972.00
2018-03-27T12:28:59.432Z,7224.00